Terminal Aerodrome Forecast
Issued by NWS Kansas City/Pleasant Hill, MO

Home | Current Version | Previous Version | Text Only | Print | Product List | Glossary On
Versions: 1 2 3 4 5 6 7 8 9 10 11 12 13 14 15 16 17 18 19 20 21
000
FTUS43 KEAX 251700
TAFMCI
TAF
KMCI 251720Z 2518/2618 30010KT P6SM VCSH OVC015
     FM260000 03010KT P6SM OVC007
     FM261300 06010KT P6SM BKN015
     FM261600 08012KT P6SM BKN035=

USA.gov is the U.S. government's official web portal to all federal, state and local government web resources and services.